createdAt,value
2022-12-24T00:00:25.199Z,4.90
2022-12-24T00:00:47.985Z,5.00
2022-12-24T00:01:10.863Z,5.00
2022-12-24T00:01:33.746Z,5.00
2022-12-24T00:01:56.456Z,4.90
2022-12-24T00:02:19.450Z,4.90
2022-12-24T00:02:42.609Z,4.90
2022-12-24T00:03:07.130Z,4.90
2022-12-24T00:03:30.342Z,4.90
2022-12-24T00:03:53.726Z,4.90
2022-12-24T00:04:16.528Z,4.80
2022-12-24T00:04:39.372Z,4.80
2022-12-24T00:05:02.376Z,4.80
2022-12-24T00:05:25.125Z,4.80
2022-12-24T00:05:47.767Z,4.80
2022-12-24T00:06:17.730Z,4.80
2022-12-24T00:06:40.561Z,4.70
2022-12-24T00:07:03.378Z,4.80
2022-12-24T00:07:26.181Z,4.80
2022-12-24T00:07:48.920Z,4.80
2022-12-24T00:08:11.688Z,4.80
2022-12-24T00:08:34.419Z,4.80
2022-12-24T00:08:57.149Z,4.80
2022-12-24T00:09:19.889Z,4.90
2022-12-24T00:09:42.704Z,4.90
2022-12-24T00:10:06.889Z,4.90
2022-12-24T00:10:29.785Z,4.90
2022-12-24T00:10:53.670Z,4.80
2022-12-24T00:11:16.476Z,4.80
2022-12-24T00:11:39.247Z,4.80
2022-12-24T00:12:02.070Z,4.80
2022-12-24T00:12:24.825Z,4.80
2022-12-24T00:12:47.515Z,4.80
2022-12-24T00:13:10.279Z,4.80
2022-12-24T00:13:32.970Z,4.70
2022-12-24T00:13:55.713Z,4.80
2022-12-24T00:14:18.451Z,4.70
2022-12-24T00:14:41.236Z,4.80
2022-12-24T00:15:04.339Z,4.70
2022-12-24T00:15:27.146Z,4.70
2022-12-24T00:15:52.981Z,4.80
2022-12-24T00:16:16.060Z,4.80
2022-12-24T00:16:39.042Z,4.70
2022-12-24T00:17:04.524Z,4.70
2022-12-24T00:17:27.321Z,4.70
2022-12-24T00:17:50.062Z,4.70
2022-12-24T00:18:14.337Z,4.70
2022-12-24T00:18:43.312Z,4.70
2022-12-24T00:19:08.385Z,4.70
2022-12-24T00:19:31.260Z,4.70
2022-12-24T00:19:54.085Z,4.70
2022-12-24T00:20:17.103Z,4.70
2022-12-24T00:20:39.888Z,4.70
2022-12-24T00:21:04.190Z,4.70
2022-12-24T00:21:27.017Z,4.70
2022-12-24T00:21:49.759Z,4.70
2022-12-24T00:22:12.562Z,4.70
2022-12-24T00:22:35.398Z,4.70
2022-12-24T00:22:58.177Z,4.70
2022-12-24T00:23:21.083Z,4.70
2022-12-24T00:23:44.160Z,4.70
2022-12-24T00:24:07.366Z,4.70
2022-12-24T00:24:30.088Z,4.70
2022-12-24T00:24:52.955Z,4.70
2022-12-24T00:25:16.068Z,4.70
2022-12-24T00:25:38.923Z,4.70
2022-12-24T00:26:01.747Z,4.70
2022-12-24T00:26:24.533Z,4.70
2022-12-24T00:26:47.301Z,4.70
2022-12-24T00:27:12.401Z,4.70
2022-12-24T00:27:35.209Z,4.70
2022-12-24T00:27:58.304Z,4.80
2022-12-24T00:28:21.086Z,4.70
2022-12-24T00:28:43.855Z,4.80
2022-12-24T00:29:06.731Z,4.80
2022-12-24T00:29:29.517Z,4.80
2022-12-24T00:29:52.210Z,4.80
2022-12-24T00:30:15.153Z,4.80
2022-12-24T00:30:39.287Z,4.80
2022-12-24T00:31:08.387Z,4.80
2022-12-24T00:31:31.228Z,4.80
2022-12-24T00:31:54.060Z,4.80
2022-12-24T00:32:16.848Z,4.80
2022-12-24T00:32:39.686Z,4.70
2022-12-24T00:33:02.512Z,4.70
2022-12-24T00:33:26.861Z,4.70
2022-12-24T00:33:49.776Z,4.70
2022-12-24T00:34:12.630Z,4.70
2022-12-24T00:34:35.508Z,4.60
2022-12-24T00:34:58.228Z,4.60
2022-12-24T00:35:21.117Z,4.60
2022-12-24T00:35:43.871Z,4.60
2022-12-24T00:36:08.021Z,4.60
2022-12-24T00:36:30.768Z,4.50
2022-12-24T00:36:53.587Z,4.50
2022-12-24T00:37:16.329Z,4.50
2022-12-24T00:37:39.121Z,4.60
2022-12-24T00:38:03.946Z,4.60
2022-12-24T00:38:26.705Z,4.60
2022-12-24T00:38:49.463Z,4.50
2022-12-24T00:39:12.222Z,4.60
2022-12-24T00:39:35.086Z,4.60
2022-12-24T00:39:57.875Z,4.50
2022-12-24T00:40:20.646Z,4.60
2022-12-24T00:40:43.445Z,4.50
2022-12-24T00:41:25.072Z,4.60
2022-12-24T00:41:49.406Z,4.60
2022-12-24T00:42:12.267Z,4.50
2022-12-24T00:42:35.025Z,4.60
2022-12-24T00:42:57.765Z,4.60
2022-12-24T00:43:20.570Z,4.50
2022-12-24T00:43:43.290Z,4.50
2022-12-24T00:44:07.285Z,4.50
2022-12-24T00:44:30.091Z,4.50
2022-12-24T00:44:52.830Z,4.50
2022-12-24T00:45:15.723Z,4.50
2022-12-24T00:45:38.435Z,4.50
2022-12-24T00:46:01.347Z,4.50
2022-12-24T00:46:24.203Z,4.50
2022-12-24T00:46:47.108Z,4.50
2022-12-24T00:47:12.339Z,4.50
2022-12-24T00:47:35.151Z,4.50
2022-12-24T00:47:57.929Z,4.50
2022-12-24T00:48:20.697Z,4.50
2022-12-24T00:48:44.836Z,4.50
2022-12-24T00:49:07.547Z,4.50
2022-12-24T00:49:30.315Z,4.60
2022-12-24T00:49:53.071Z,4.60
2022-12-24T00:50:15.863Z,4.50
2022-12-24T00:50:38.610Z,4.60
2022-12-24T00:51:01.678Z,4.50
2022-12-24T00:51:24.800Z,4.50
2022-12-24T00:51:47.771Z,4.50
2022-12-24T00:52:10.520Z,4.50
2022-12-24T00:52:33.252Z,4.50
2022-12-24T00:52:58.410Z,4.50
2022-12-24T00:53:21.227Z,4.50
2022-12-24T00:53:44.131Z,4.50
2022-12-24T00:54:09.629Z,4.50
2022-12-24T00:54:32.337Z,4.40
2022-12-24T00:54:54.995Z,4.50
2022-12-24T00:55:17.870Z,4.40
2022-12-24T00:55:40.679Z,4.50
2022-12-24T00:56:03.447Z,4.50
2022-12-24T00:56:26.263Z,4.50
2022-12-24T00:56:49.047Z,4.50
2022-12-24T00:57:11.855Z,4.50
2022-12-24T00:57:34.595Z,4.50
2022-12-24T00:57:57.346Z,4.50
2022-12-24T00:58:20.187Z,4.50
2022-12-24T00:58:42.979Z,4.50
2022-12-24T00:59:05.750Z,4.50
2022-12-24T00:59:28.645Z,4.50
2022-12-24T00:59:51.411Z,4.50
2022-12-24T01:00:17.532Z,4.50
2022-12-24T01:00:40.350Z,4.50
2022-12-24T01:01:03.363Z,4.50
2022-12-24T01:01:26.331Z,4.50
2022-12-24T01:01:49.583Z,4.50
2022-12-24T01:02:12.494Z,4.50
2022-12-24T01:02:35.632Z,4.40
2022-12-24T01:02:58.825Z,4.40
2022-12-24T01:03:21.841Z,4.40
2022-12-24T01:03:46.225Z,4.40
2022-12-24T01:04:27.607Z,4.40
2022-12-24T01:05:09.161Z,4.40
2022-12-24T01:05:32.070Z,4.30
2022-12-24T01:05:55.035Z,4.30
2022-12-24T01:06:18.641Z,4.30
2022-12-24T01:06:41.441Z,4.30
2022-12-24T01:07:04.474Z,4.30
2022-12-24T01:07:27.491Z,4.30
2022-12-24T01:07:50.263Z,4.30
2022-12-24T01:08:13.021Z,4.30
2022-12-24T01:08:35.961Z,4.30
2022-12-24T01:08:58.742Z,4.30
2022-12-24T01:09:21.551Z,4.30
2022-12-24T01:09:44.370Z,4.30
2022-12-24T01:10:08.381Z,4.30
2022-12-24T01:10:31.184Z,4.30
2022-12-24T01:10:53.971Z,4.30
2022-12-24T01:11:16.930Z,4.20
2022-12-24T01:11:39.756Z,4.20
2022-12-24T01:12:02.578Z,4.20
2022-12-24T01:12:25.780Z,4.20
2022-12-24T01:12:48.640Z,4.20
2022-12-24T01:13:11.361Z,4.20
2022-12-24T01:13:34.084Z,4.20
2022-12-24T01:13:56.828Z,4.20
2022-12-24T01:14:22.009Z,4.10
2022-12-24T01:14:44.792Z,4.10
2022-12-24T01:15:08.622Z,4.10
2022-12-24T01:15:31.447Z,4.10
2022-12-24T01:15:54.424Z,4.10
2022-12-24T01:16:18.753Z,4.10
2022-12-24T01:16:41.846Z,4.10
2022-12-24T01:17:05.716Z,4.10
2022-12-24T01:17:28.530Z,4.10
2022-12-24T01:17:51.262Z,4.10
2022-12-24T01:18:14.022Z,4.10
2022-12-24T01:18:36.809Z,4.10
2022-12-24T01:19:01.116Z,4.10
2022-12-24T01:19:24.008Z,4.00
2022-12-24T01:19:46.751Z,4.00
2022-12-24T01:20:14.246Z,4.00
2022-12-24T01:20:37.005Z,4.00
2022-12-24T01:21:01.455Z,4.00
2022-12-24T01:21:24.160Z,4.00
2022-12-24T01:21:47.050Z,4.00
2022-12-24T01:22:09.775Z,3.90
2022-12-24T01:22:32.555Z,3.90
2022-12-24T01:22:55.875Z,3.90
2022-12-24T01:23:18.597Z,4.00
2022-12-24T01:23:41.383Z,4.00
2022-12-24T01:24:04.525Z,3.90
2022-12-24T01:24:27.236Z,4.00
2022-12-24T01:24:50.069Z,4.00
2022-12-24T01:25:12.838Z,4.00
2022-12-24T01:25:37.303Z,3.90
2022-12-24T01:26:00.841Z,3.90
2022-12-24T01:26:23.587Z,3.90
2022-12-24T01:26:46.359Z,3.90
2022-12-24T01:27:09.292Z,3.90
2022-12-24T01:27:33.352Z,3.90
2022-12-24T01:27:56.071Z,3.90
2022-12-24T01:28:21.895Z,3.90
2022-12-24T01:28:44.646Z,4.00
2022-12-24T01:29:07.456Z,4.00
2022-12-24T01:29:30.398Z,3.90
2022-12-24T01:29:53.192Z,3.90
2022-12-24T01:30:16.181Z,3.90
2022-12-24T01:30:38.913Z,3.90
2022-12-24T01:31:01.739Z,3.90
2022-12-24T01:31:24.795Z,3.80
2022-12-24T01:31:47.972Z,3.90
2022-12-24T01:32:10.705Z,3.90
2022-12-24T01:32:33.449Z,3.80
2022-12-24T01:32:58.447Z,3.80
2022-12-24T01:33:21.190Z,3.80
2022-12-24T01:33:44.050Z,3.80
2022-12-24T01:34:08.239Z,3.80
2022-12-24T01:34:31.174Z,3.80
2022-12-24T01:34:53.977Z,3.80
2022-12-24T01:35:17.044Z,3.80
2022-12-24T01:35:40.686Z,3.80
2022-12-24T01:36:03.681Z,3.80
2022-12-24T01:36:26.479Z,3.90
2022-12-24T01:36:49.185Z,3.90
2022-12-24T01:37:13.052Z,3.90
2022-12-24T01:37:35.895Z,3.90
2022-12-24T01:37:58.597Z,3.90
2022-12-24T01:38:21.322Z,3.80
2022-12-24T01:38:44.208Z,3.80
2022-12-24T01:39:06.985Z,3.80
2022-12-24T01:39:29.870Z,3.90
2022-12-24T01:40:12.592Z,3.90
2022-12-24T01:40:53.770Z,3.90
2022-12-24T01:41:35.706Z,3.90
2022-12-24T01:42:14.266Z,3.90
2022-12-24T01:42:55.632Z,4.00
2022-12-24T01:43:25.361Z,3.90
2022-12-24T01:43:48.099Z,3.90
2022-12-24T01:44:33.238Z,3.90
2022-12-24T01:45:35.469Z,3.90
2022-12-24T01:45:58.580Z,3.90
2022-12-24T01:46:23.504Z,3.90
2022-12-24T01:46:46.535Z,3.90
2022-12-24T01:47:12.010Z,3.90
2022-12-24T01:47:34.731Z,3.90
2022-12-24T01:47:57.538Z,3.90
2022-12-24T01:48:23.694Z,3.90
2022-12-24T01:48:47.341Z,4.00
2022-12-24T01:49:12.075Z,3.90
2022-12-24T01:49:35.027Z,4.00
2022-12-24T01:49:59.066Z,4.00
2022-12-24T01:50:21.925Z,4.00
2022-12-24T01:50:44.700Z,4.10
2022-12-24T01:51:11.522Z,4.10
2022-12-24T01:51:38.422Z,4.10
2022-12-24T01:52:03.302Z,4.10
2022-12-24T01:52:28.708Z,4.10
2022-12-24T01:52:51.467Z,4.10
2022-12-24T01:53:15.010Z,4.10
2022-12-24T01:53:37.966Z,4.10
2022-12-24T01:54:06.262Z,4.20
2022-12-24T01:54:30.411Z,4.10
2022-12-24T01:54:54.170Z,4.20
2022-12-24T01:55:17.960Z,4.20
2022-12-24T01:55:40.900Z,4.20
2022-12-24T01:56:03.939Z,4.20
2022-12-24T01:56:27.047Z,4.20
2022-12-24T01:56:52.157Z,4.20
2022-12-24T01:57:18.521Z,4.20
2022-12-24T01:57:43.517Z,4.20
2022-12-24T01:58:06.311Z,4.10
2022-12-24T01:58:29.131Z,4.10
2022-12-24T01:58:56.641Z,4.10
2022-12-24T01:59:19.525Z,4.20
2022-12-24T01:59:42.415Z,4.10
2022-12-24T02:00:07.851Z,4.10
2022-12-24T02:00:30.668Z,4.10
2022-12-24T02:00:53.385Z,4.10
2022-12-24T02:01:16.213Z,4.10
2022-12-24T02:01:39.431Z,4.20
2022-12-24T02:02:02.533Z,4.10
2022-12-24T02:02:25.705Z,4.10
2022-12-24T02:02:50.065Z,4.20
2022-12-24T02:03:13.223Z,4.20
2022-12-24T02:03:36.180Z,4.20
2022-12-24T02:03:59.325Z,4.20
2022-12-24T02:04:29.189Z,4.30
2022-12-24T02:04:55.185Z,4.40
2022-12-24T02:05:20.811Z,4.30
2022-12-24T02:05:47.625Z,4.40
2022-12-24T02:06:12.063Z,4.40
2022-12-24T02:06:34.844Z,4.50
2022-12-24T02:06:57.562Z,4.50
2022-12-24T02:07:20.259Z,4.50
2022-12-24T02:07:43.140Z,4.50
2022-12-24T02:08:05.976Z,4.50
2022-12-24T02:08:40.295Z,4.50
2022-12-24T02:09:03.218Z,4.50
2022-12-24T02:09:26.017Z,4.50
2022-12-24T02:09:49.955Z,4.50
2022-12-24T02:10:13.379Z,4.50
2022-12-24T02:10:36.096Z,4.50
2022-12-24T02:10:58.811Z,4.50
2022-12-24T02:11:21.927Z,4.50
2022-12-24T02:11:45.096Z,4.60
2022-12-24T02:12:08.043Z,4.50
2022-12-24T02:12:32.157Z,4.50
2022-12-24T02:12:55.026Z,4.50
2022-12-24T02:13:23.292Z,4.50
2022-12-24T02:13:51.366Z,4.60
2022-12-24T02:14:14.162Z,4.50
2022-12-24T02:14:36.960Z,4.50
2022-12-24T02:14:59.787Z,4.60
2022-12-24T02:15:22.745Z,4.60
2022-12-24T02:15:54.345Z,4.60
2022-12-24T02:16:23.629Z,4.60
2022-12-24T02:16:51.531Z,4.60
2022-12-24T02:17:18.606Z,4.60
2022-12-24T02:17:45.452Z,4.60
2022-12-24T02:18:11.133Z,4.60
2022-12-24T02:18:36.244Z,4.60
2022-12-24T02:19:02.886Z,4.60
2022-12-24T02:19:47.920Z,4.50
2022-12-24T02:20:47.088Z,4.50
2022-12-24T02:21:46.745Z,4.50
2022-12-24T02:22:11.169Z,4.50
2022-12-24T02:22:40.802Z,4.50
2022-12-24T02:23:28.019Z,4.50
2022-12-24T02:24:23.889Z,4.50
2022-12-24T02:25:03.333Z,4.50
2022-12-24T02:25:46.255Z,4.60
2022-12-24T02:26:18.509Z,4.50
2022-12-24T02:27:11.060Z,4.60
2022-12-24T02:27:46.572Z,4.60
2022-12-24T02:28:14.309Z,4.60
2022-12-24T02:28:47.496Z,4.60
2022-12-24T02:29:20.414Z,4.60
2022-12-24T02:30:04.585Z,4.60
2022-12-24T02:30:30.640Z,4.60
2022-12-24T02:30:53.671Z,4.60
2022-12-24T02:31:17.258Z,4.60
2022-12-24T02:31:43.297Z,4.60
2022-12-24T02:32:08.329Z,4.60
2022-12-24T02:32:35.997Z,4.70
2022-12-24T02:33:22.588Z,4.70
2022-12-24T02:33:47.359Z,4.70
2022-12-24T02:34:13.781Z,4.60
2022-12-24T02:34:38.146Z,4.60
2022-12-24T02:35:03.032Z,4.50
2022-12-24T02:35:31.501Z,4.60
2022-12-24T02:35:56.375Z,4.50
2022-12-24T02:36:21.236Z,4.50
2022-12-24T02:36:45.236Z,4.50
2022-12-24T02:37:09.454Z,4.40
2022-12-24T02:37:33.763Z,4.30
2022-12-24T02:37:58.814Z,4.30
2022-12-24T02:38:25.459Z,4.20
2022-12-24T02:38:49.701Z,4.10
2022-12-24T02:39:13.584Z,4.10
2022-12-24T02:39:39.589Z,4.00
2022-12-24T02:40:12.142Z,4.00
2022-12-24T02:40:40.883Z,4.00
2022-12-24T02:41:05.579Z,4.00
2022-12-24T02:41:50.404Z,4.00
2022-12-24T02:42:13.763Z,3.90
2022-12-24T02:42:38.380Z,3.80
2022-12-24T02:43:03.254Z,3.80
2022-12-24T02:43:28.738Z,3.80
2022-12-24T02:43:51.933Z,3.80
2022-12-24T02:44:16.960Z,3.70
2022-12-24T02:44:42.867Z,3.70
2022-12-24T02:45:08.834Z,3.70
2022-12-24T02:45:32.370Z,3.70
2022-12-24T02:45:59.371Z,3.70
2022-12-24T02:46:24.101Z,3.70
2022-12-24T02:46:46.989Z,3.70
2022-12-24T02:47:10.161Z,3.70
2022-12-24T02:47:34.203Z,3.60
2022-12-24T02:47:57.270Z,3.60
2022-12-24T02:48:20.110Z,3.70
2022-12-24T02:48:43.543Z,3.70
2022-12-24T02:49:06.314Z,3.70
2022-12-24T02:49:29.135Z,3.70
2022-12-24T02:49:51.884Z,3.70
2022-12-24T02:50:16.367Z,3.70
2022-12-24T02:50:39.267Z,3.70
2022-12-24T02:51:04.351Z,3.70
2022-12-24T02:51:27.136Z,3.70
2022-12-24T02:51:49.930Z,3.70
2022-12-24T02:52:35.178Z,3.60
2022-12-24T02:52:57.904Z,3.60
2022-12-24T02:53:20.692Z,3.50
2022-12-24T02:53:43.536Z,3.50
2022-12-24T02:54:06.379Z,3.50
2022-12-24T02:54:29.168Z,3.40
2022-12-24T02:54:52.002Z,3.40
2022-12-24T02:55:18.123Z,3.40
2022-12-24T02:55:49.778Z,3.30
2022-12-24T02:56:33.320Z,3.30
2022-12-24T02:57:04.954Z,3.30
2022-12-24T02:57:31.958Z,3.30
2022-12-24T02:58:04.728Z,3.20
2022-12-24T02:58:32.791Z,3.20
2022-12-24T02:59:12.079Z,3.20
2022-12-24T02:59:52.859Z,3.20
2022-12-24T03:00:18.599Z,3.20
2022-12-24T03:00:47.771Z,3.20
2022-12-24T03:01:17.701Z,3.20
2022-12-24T03:01:46.334Z,3.20
2022-12-24T03:02:13.363Z,3.20
2022-12-24T03:02:47.844Z,3.20
2022-12-24T03:03:21.156Z,3.20
2022-12-24T03:04:00.978Z,3.20
2022-12-24T03:04:40.010Z,3.20
2022-12-24T03:05:09.454Z,3.20
2022-12-24T03:05:38.893Z,3.20
2022-12-24T03:06:07.224Z,3.20
2022-12-24T03:06:36.552Z,3.20
2022-12-24T03:07:01.195Z,3.20
2022-12-24T03:07:28.505Z,3.20
2022-12-24T03:07:56.870Z,3.30
2022-12-24T03:08:24.120Z,3.20
2022-12-24T03:08:50.889Z,3.20
2022-12-24T03:09:19.872Z,3.20
2022-12-24T03:09:53.042Z,3.20
2022-12-24T03:10:19.203Z,3.20
2022-12-24T03:10:45.423Z,3.20
2022-12-24T03:11:09.531Z,3.20
2022-12-24T03:11:32.346Z,3.30
2022-12-24T03:11:57.801Z,3.30
2022-12-24T03:12:21.920Z,3.30
2022-12-24T03:12:45.444Z,3.30
2022-12-24T03:13:10.713Z,3.30
2022-12-24T03:13:33.513Z,3.30
2022-12-24T03:13:56.321Z,3.30
2022-12-24T03:14:19.138Z,3.30
2022-12-24T03:14:42.867Z,3.30
2022-12-24T03:15:06.993Z,3.20
2022-12-24T03:15:31.192Z,3.20
2022-12-24T03:15:54.198Z,3.20
2022-12-24T03:16:18.071Z,3.20
2022-12-24T03:16:40.917Z,3.10
2022-12-24T03:17:03.690Z,3.10
2022-12-24T03:17:26.497Z,3.10
2022-12-24T03:17:52.799Z,3.20
2022-12-24T03:18:17.545Z,3.10
2022-12-24T03:18:41.614Z,3.10
2022-12-24T03:19:04.488Z,3.10
2022-12-24T03:19:27.422Z,3.10
2022-12-24T03:19:50.317Z,3.20
2022-12-24T03:20:13.374Z,3.10
2022-12-24T03:20:37.453Z,3.20
2022-12-24T03:21:02.185Z,3.10
2022-12-24T03:21:26.560Z,3.10
2022-12-24T03:21:49.383Z,3.10
2022-12-24T03:22:12.117Z,3.10
2022-12-24T03:22:34.865Z,3.00
2022-12-24T03:22:57.891Z,3.00
2022-12-24T03:23:20.643Z,3.00
2022-12-24T03:23:43.359Z,3.00
2022-12-24T03:24:06.533Z,3.00
2022-12-24T03:24:29.367Z,3.00
2022-12-24T03:24:52.149Z,3.00
2022-12-24T03:25:15.079Z,3.00
2022-12-24T03:25:39.984Z,2.90
2022-12-24T03:26:05.129Z,2.90
2022-12-24T03:26:28.873Z,2.90
2022-12-24T03:26:54.261Z,2.90
2022-12-24T03:27:17.009Z,2.90
2022-12-24T03:27:39.899Z,2.90
2022-12-24T03:28:03.897Z,2.80
2022-12-24T03:28:27.188Z,2.90
2022-12-24T03:28:50.113Z,2.80
2022-12-24T03:29:12.917Z,2.80
2022-12-24T03:29:35.815Z,2.70
2022-12-24T03:29:58.684Z,2.70
2022-12-24T03:30:21.426Z,2.70
2022-12-24T03:30:47.097Z,2.70
2022-12-24T03:31:09.975Z,2.70
2022-12-24T03:31:41.661Z,2.70
2022-12-24T03:32:06.930Z,2.70
2022-12-24T03:32:30.404Z,2.70
2022-12-24T03:32:53.228Z,2.70
2022-12-24T03:33:16.257Z,2.70
2022-12-24T03:33:39.435Z,2.70
2022-12-24T03:34:02.159Z,2.70
2022-12-24T03:34:24.947Z,2.60
2022-12-24T03:34:47.653Z,2.70
2022-12-24T03:35:10.593Z,2.70
2022-12-24T03:35:33.337Z,2.70
2022-12-24T03:35:56.096Z,2.70
2022-12-24T03:36:18.827Z,2.70
2022-12-24T03:36:41.608Z,2.60
2022-12-24T03:37:04.476Z,2.70
2022-12-24T03:37:27.363Z,2.70
2022-12-24T03:37:50.222Z,2.60
2022-12-24T03:38:14.025Z,2.70
2022-12-24T03:38:36.866Z,2.60
2022-12-24T03:38:59.679Z,2.60
2022-12-24T03:39:22.433Z,2.60
2022-12-24T03:39:47.588Z,2.60
2022-12-24T03:40:11.144Z,2.60
2022-12-24T03:40:34.005Z,2.50
2022-12-24T03:41:00.044Z,2.50
2022-12-24T03:41:22.784Z,2.50
2022-12-24T03:41:45.524Z,2.50
2022-12-24T03:42:08.293Z,2.50
2022-12-24T03:42:30.985Z,2.50
2022-12-24T03:42:53.774Z,2.50
2022-12-24T03:43:16.492Z,2.50
2022-12-24T03:43:39.331Z,2.50
2022-12-24T03:44:02.120Z,2.50
2022-12-24T03:44:24.873Z,2.50
2022-12-24T03:44:47.584Z,2.50
2022-12-24T03:45:11.489Z,2.50
2022-12-24T03:45:34.604Z,2.50
2022-12-24T03:45:59.127Z,2.50
2022-12-24T03:46:22.068Z,2.60
2022-12-24T03:46:44.961Z,2.60
2022-12-24T03:47:07.687Z,2.70
2022-12-24T03:47:30.995Z,2.70
2022-12-24T03:47:53.830Z,2.90
2022-12-24T03:48:16.611Z,2.80
2022-12-24T03:48:39.428Z,2.80
2022-12-24T03:49:02.296Z,2.80
2022-12-24T03:49:25.014Z,2.80
2022-12-24T03:49:47.678Z,2.80
2022-12-24T03:50:10.739Z,2.80
2022-12-24T03:50:33.551Z,2.80
2022-12-24T03:50:56.269Z,2.80
2022-12-24T03:51:19.871Z,2.80
2022-12-24T03:51:42.690Z,2.80
2022-12-24T03:52:05.699Z,2.80
2022-12-24T03:52:28.835Z,2.80
2022-12-24T03:52:51.585Z,2.80
2022-12-24T03:53:14.394Z,2.80
2022-12-24T03:53:40.025Z,2.80
2022-12-24T03:54:02.795Z,2.70
2022-12-24T03:54:25.641Z,2.70
2022-12-24T03:54:48.359Z,2.70
2022-12-24T03:55:11.230Z,2.70
2022-12-24T03:55:34.093Z,2.70
2022-12-24T03:55:56.914Z,2.70
2022-12-24T03:56:22.136Z,2.70
2022-12-24T03:56:44.990Z,2.70
2022-12-24T03:57:07.807Z,2.80
2022-12-24T03:57:30.704Z,2.80
2022-12-24T03:57:53.411Z,2.80
2022-12-24T03:58:16.235Z,2.80
2022-12-24T03:58:39.010Z,2.90
2022-12-24T03:59:01.782Z,2.90
2022-12-24T03:59:24.659Z,2.90
2022-12-24T03:59:47.456Z,2.90
2022-12-24T04:00:12.201Z,2.90
2022-12-24T04:00:35.029Z,2.90
2022-12-24T04:00:59.234Z,2.90
2022-12-24T04:01:22.277Z,2.90
2022-12-24T04:01:45.328Z,2.90
2022-12-24T04:02:08.361Z,2.90
2022-12-24T04:02:32.693Z,2.90
2022-12-24T04:02:55.563Z,2.90
2022-12-24T04:03:18.511Z,2.90
2022-12-24T04:03:41.304Z,2.90
2022-12-24T04:04:04.116Z,2.90
2022-12-24T04:04:27.952Z,2.90
2022-12-24T04:04:50.759Z,2.90
2022-12-24T04:05:14.490Z,2.90
2022-12-24T04:05:37.355Z,2.90
2022-12-24T04:06:03.749Z,2.90
2022-12-24T04:06:26.584Z,2.90
2022-12-24T04:06:49.384Z,2.90
2022-12-24T04:07:12.170Z,2.90
2022-12-24T04:07:34.960Z,3.00
2022-12-24T04:07:57.691Z,3.00
2022-12-24T04:08:20.410Z,2.90
2022-12-24T04:08:43.116Z,3.00
2022-12-24T04:09:06.089Z,3.00
2022-12-24T04:09:28.871Z,3.00
2022-12-24T04:09:51.759Z,3.00
2022-12-24T04:10:14.637Z,2.90
2022-12-24T04:10:37.634Z,2.90
2022-12-24T04:11:06.170Z,2.90
2022-12-24T04:11:32.460Z,2.90
2022-12-24T04:11:55.383Z,2.90
2022-12-24T04:12:18.105Z,2.90
2022-12-24T04:12:40.926Z,2.90
2022-12-24T04:13:03.677Z,2.90
2022-12-24T04:13:26.501Z,2.90
2022-12-24T04:13:49.307Z,2.90
2022-12-24T04:14:12.013Z,2.90
2022-12-24T04:14:34.849Z,2.90
2022-12-24T04:14:57.557Z,2.90
2022-12-24T04:15:20.447Z,3.00
2022-12-24T04:15:43.285Z,2.90
2022-12-24T04:16:08.994Z,2.90
2022-12-24T04:16:32.025Z,2.90
2022-12-24T04:16:55.013Z,2.90
2022-12-24T04:17:20.904Z,2.90
2022-12-24T04:17:43.579Z,2.90
2022-12-24T04:18:06.445Z,2.90
2022-12-24T04:18:29.339Z,2.90
2022-12-24T04:18:55.209Z,2.80
2022-12-24T04:19:17.935Z,2.90
2022-12-24T04:19:40.672Z,2.90
2022-12-24T04:20:03.611Z,2.80
2022-12-24T04:20:26.326Z,2.90
2022-12-24T04:20:50.131Z,2.80
2022-12-24T04:21:12.909Z,2.80
2022-12-24T04:21:35.683Z,2.90
2022-12-24T04:21:58.493Z,2.90
2022-12-24T04:22:21.392Z,2.90
2022-12-24T04:22:44.488Z,3.00
2022-12-24T04:23:07.222Z,3.00
2022-12-24T04:23:31.811Z,3.00
2022-12-24T04:23:54.530Z,3.00
2022-12-24T04:24:17.255Z,3.00
2022-12-24T04:24:39.993Z,3.00
2022-12-24T04:25:02.729Z,3.00
2022-12-24T04:25:25.523Z,3.00
2022-12-24T04:25:48.351Z,3.00
2022-12-24T04:26:12.191Z,3.00
2022-12-24T04:26:35.047Z,3.00
2022-12-24T04:26:57.854Z,3.00
2022-12-24T04:27:25.300Z,3.00
2022-12-24T04:27:53.019Z,3.00
2022-12-24T04:28:15.848Z,3.00
2022-12-24T04:28:38.610Z,3.00
2022-12-24T04:29:01.458Z,3.00
2022-12-24T04:29:24.389Z,3.00
2022-12-24T04:29:47.056Z,3.00
2022-12-24T04:30:10.852Z,2.90
2022-12-24T04:30:33.735Z,2.90
2022-12-24T04:30:59.420Z,2.90
2022-12-24T04:31:23.722Z,2.80
2022-12-24T04:31:46.587Z,2.80
2022-12-24T04:32:10.874Z,2.70
2022-12-24T04:32:33.769Z,2.80
2022-12-24T04:32:56.529Z,2.70
2022-12-24T04:33:19.299Z,2.80
2022-12-24T04:33:41.968Z,2.70
2022-12-24T04:34:04.714Z,2.70
2022-12-24T04:34:27.648Z,2.70
2022-12-24T04:34:50.415Z,2.70
2022-12-24T04:35:13.180Z,2.70
2022-12-24T04:35:39.679Z,2.60
2022-12-24T04:36:02.641Z,2.70
2022-12-24T04:36:25.371Z,2.70
2022-12-24T04:36:48.274Z,2.70
2022-12-24T04:37:11.174Z,2.70
2022-12-24T04:37:34.167Z,2.70
2022-12-24T04:37:57.005Z,2.70
2022-12-24T04:38:19.699Z,2.80
2022-12-24T04:38:42.448Z,2.70
2022-12-24T04:39:06.301Z,2.80
2022-12-24T04:39:29.091Z,2.70
2022-12-24T04:39:51.847Z,2.70
2022-12-24T04:40:14.833Z,2.70
2022-12-24T04:40:37.681Z,2.70
2022-12-24T04:41:01.613Z,2.70
2022-12-24T04:41:25.190Z,2.70
2022-12-24T04:41:48.150Z,2.70
2022-12-24T04:42:11.091Z,2.60
2022-12-24T04:42:34.994Z,2.60
2022-12-24T04:42:57.751Z,2.70
2022-12-24T04:43:20.605Z,2.70
2022-12-24T04:43:43.349Z,2.70
2022-12-24T04:44:06.223Z,2.60
2022-12-24T04:44:28.998Z,2.70
2022-12-24T04:44:51.832Z,2.60
2022-12-24T04:45:14.559Z,2.60
2022-12-24T04:45:37.530Z,2.60
2022-12-24T04:46:05.384Z,2.50
2022-12-24T04:46:33.149Z,2.50
2022-12-24T04:46:55.963Z,2.50
2022-12-24T04:47:18.831Z,2.50
2022-12-24T04:47:41.690Z,2.50
2022-12-24T04:48:07.281Z,2.50
2022-12-24T04:48:30.039Z,2.50
2022-12-24T04:48:53.506Z,2.50
2022-12-24T04:49:16.338Z,2.50
2022-12-24T04:49:39.123Z,2.50
2022-12-24T04:50:01.836Z,2.50
2022-12-24T04:50:24.819Z,2.50
2022-12-24T04:50:47.596Z,2.60
2022-12-24T04:51:10.745Z,2.60
2022-12-24T04:51:33.643Z,2.60
2022-12-24T04:51:56.470Z,2.60
2022-12-24T04:52:21.929Z,2.60
2022-12-24T04:52:44.663Z,2.60
2022-12-24T04:53:07.456Z,2.50
2022-12-24T04:53:32.668Z,2.50
2022-12-24T04:53:55.778Z,2.50
2022-12-24T04:54:18.550Z,2.50
2022-12-24T04:54:41.299Z,2.60
2022-12-24T04:55:04.390Z,2.50
2022-12-24T04:55:27.208Z,2.50
2022-12-24T04:55:49.933Z,2.50
2022-12-24T04:56:13.433Z,2.50
2022-12-24T04:56:37.187Z,2.50
2022-12-24T04:57:00.011Z,2.50
2022-12-24T04:57:22.830Z,2.50
2022-12-24T04:57:51.140Z,2.50
2022-12-24T04:58:15.787Z,2.50
2022-12-24T04:58:38.627Z,2.50
2022-12-24T04:59:01.641Z,2.50
2022-12-24T04:59:24.346Z,2.50
2022-12-24T04:59:47.065Z,2.50
2022-12-24T05:00:11.511Z,2.50
2022-12-24T05:00:34.297Z,2.50
2022-12-24T05:00:57.148Z,2.50
2022-12-24T05:01:21.309Z,2.50
2022-12-24T05:01:45.888Z,2.50
2022-12-24T05:02:10.177Z,2.40
2022-12-24T05:02:33.416Z,2.50
2022-12-24T05:02:56.630Z,2.50
2022-12-24T05:03:19.588Z,2.50
2022-12-24T05:03:42.318Z,2.50
2022-12-24T05:04:07.302Z,2.50
2022-12-24T05:04:30.099Z,2.40
2022-12-24T05:04:52.947Z,2.40
2022-12-24T05:05:15.877Z,2.40
2022-12-24T05:05:38.604Z,2.40
2022-12-24T05:06:04.283Z,2.40
2022-12-24T05:06:29.175Z,2.40
2022-12-24T05:06:52.005Z,2.50
2022-12-24T05:07:14.739Z,2.50
2022-12-24T05:07:37.704Z,2.60
2022-12-24T05:08:00.536Z,2.60
2022-12-24T05:08:23.445Z,2.60
2022-12-24T05:08:46.599Z,2.60
2022-12-24T05:09:09.580Z,2.50
2022-12-24T05:09:32.797Z,2.60
2022-12-24T05:09:55.797Z,2.60
2022-12-24T05:10:19.435Z,2.50
2022-12-24T05:10:42.210Z,2.50
2022-12-24T05:11:06.224Z,2.50
2022-12-24T05:11:29.033Z,2.50
2022-12-24T05:11:51.860Z,2.40
2022-12-24T05:12:14.615Z,2.40
2022-12-24T05:12:37.371Z,2.40
2022-12-24T05:13:00.120Z,2.40
2022-12-24T05:13:23.126Z,2.30
2022-12-24T05:13:48.427Z,2.30
2022-12-24T05:14:11.484Z,2.30
2022-12-24T05:14:34.354Z,2.30
2022-12-24T05:14:57.185Z,2.30
2022-12-24T05:15:19.951Z,2.30
2022-12-24T05:15:44.810Z,2.30
2022-12-24T05:16:07.702Z,2.30
2022-12-24T05:16:30.579Z,2.30
2022-12-24T05:16:57.703Z,2.20
2022-12-24T05:17:20.575Z,2.20
2022-12-24T05:17:43.274Z,2.10
2022-12-24T05:18:06.257Z,2.10
2022-12-24T05:18:28.995Z,2.10
2022-12-24T05:18:51.971Z,2.00
2022-12-24T05:19:14.829Z,2.00
2022-12-24T05:19:37.515Z,1.90
2022-12-24T05:20:00.210Z,2.00
2022-12-24T05:20:22.949Z,2.00
2022-12-24T05:20:45.775Z,2.00
2022-12-24T05:21:09.950Z,1.90
2022-12-24T05:21:32.678Z,1.90
2022-12-24T05:22:14.034Z,2.00
2022-12-24T05:22:55.230Z,1.90
2022-12-24T05:23:37.290Z,2.00
2022-12-24T05:24:18.951Z,2.00
2022-12-24T05:25:00.639Z,2.00
2022-12-24T05:25:42.265Z,2.00
2022-12-24T05:26:23.487Z,2.00
2022-12-24T05:26:48.895Z,2.00
2022-12-24T05:27:11.609Z,2.00
2022-12-24T05:27:34.355Z,1.90
2022-12-24T05:27:57.124Z,2.00
2022-12-24T05:28:19.980Z,1.90